createdAt,value
2022-09-09T00:02:18.901Z,13.86
2022-09-09T00:04:47.493Z,13.87
2022-09-09T00:07:24.353Z,13.83
2022-09-09T00:09:53.688Z,13.88
2022-09-09T00:12:32.309Z,13.83
2022-09-09T00:15:17.327Z,13.85
2022-09-09T00:18:03.949Z,13.87
2022-09-09T00:20:39.581Z,13.93
2022-09-09T00:23:25.653Z,13.89
2022-09-09T00:26:00.146Z,14.00
2022-09-09T00:28:27.873Z,13.91
2022-09-09T00:30:55.430Z,13.83
2022-09-09T00:33:24.343Z,13.86
2022-09-09T00:35:52.897Z,13.86
2022-09-09T00:38:24.550Z,13.85
2022-09-09T00:40:53.158Z,13.81
2022-09-09T00:43:33.206Z,13.82
2022-09-09T00:46:19.211Z,13.82
2022-09-09T00:48:45.653Z,13.74
2022-09-09T00:51:30.319Z,13.88
2022-09-09T00:54:09.885Z,13.86
2022-09-09T00:56:43.084Z,13.82
2022-09-09T00:59:30.142Z,13.85
2022-09-09T01:01:56.807Z,13.99
2022-09-09T01:04:29.906Z,13.96
2022-09-09T01:07:03.476Z,13.81
2022-09-09T01:09:39.138Z,13.85
2022-09-09T01:12:19.299Z,13.93
2022-09-09T01:14:49.822Z,13.88
2022-09-09T01:17:24.470Z,13.84
2022-09-09T01:20:03.738Z,13.86
2022-09-09T01:22:35.654Z,13.95
2022-09-09T01:25:20.725Z,13.90
2022-09-09T01:27:49.189Z,13.81
2022-09-09T01:30:16.997Z,13.79
2022-09-09T01:32:50.825Z,13.92
2022-09-09T01:35:20.104Z,14.17
2022-09-09T01:37:46.466Z,14.00
2022-09-09T01:40:12.826Z,14.10
2022-09-09T01:42:39.142Z,14.11
2022-09-09T01:45:05.892Z,14.17
2022-09-09T01:47:32.209Z,14.04
2022-09-09T01:49:59.374Z,14.03
2022-09-09T01:52:25.880Z,14.04
2022-09-09T01:54:52.197Z,14.01
2022-09-09T01:57:28.815Z,14.11
2022-09-09T01:59:58.178Z,14.06
2022-09-09T02:02:27.471Z,14.06
2022-09-09T02:04:57.665Z,14.07
2022-09-09T02:07:32.049Z,14.04
2022-09-09T02:10:02.331Z,14.12
2022-09-09T02:12:29.398Z,14.02
2022-09-09T02:15:01.413Z,14.17
2022-09-09T02:17:30.396Z,14.10
2022-09-09T02:20:08.571Z,14.20
2022-09-09T02:22:36.376Z,14.24
2022-09-09T02:25:04.794Z,14.11
2022-09-09T02:27:31.101Z,14.16
2022-09-09T02:29:59.815Z,14.02
2022-09-09T02:32:26.302Z,14.19
2022-09-09T02:34:56.212Z,14.24
2022-09-09T02:37:26.054Z,14.15
2022-09-09T02:39:52.758Z,14.17
2022-09-09T02:42:20.095Z,14.13
2022-09-09T02:44:46.409Z,14.05
2022-09-09T02:47:25.369Z,13.97
2022-09-09T02:50:09.494Z,14.07
2022-09-09T02:52:54.669Z,14.07
2022-09-09T02:55:37.478Z,14.02
2022-09-09T02:58:06.980Z,13.99
2022-09-09T03:00:33.684Z,13.94
2022-09-09T03:02:59.995Z,14.07
2022-09-09T03:05:27.156Z,14.17
2022-09-09T03:07:53.463Z,14.17
2022-09-09T03:10:20.118Z,14.13
2022-09-09T03:12:46.423Z,14.08
2022-09-09T03:15:12.798Z,14.04
2022-09-09T03:17:39.122Z,14.04
2022-09-09T03:20:05.643Z,13.97
2022-09-09T03:22:31.945Z,13.97
2022-09-09T03:24:58.278Z,13.85
2022-09-09T03:27:24.677Z,14.17
2022-09-09T03:29:53.932Z,14.10
2022-09-09T03:32:20.434Z,13.93
2022-09-09T03:34:50.465Z,13.91
2022-09-09T03:37:18.599Z,13.95
2022-09-09T03:39:45.142Z,13.91
2022-09-09T03:42:15.161Z,13.82
2022-09-09T03:44:42.874Z,13.76
2022-09-09T03:47:09.302Z,13.92
2022-09-09T03:49:35.908Z,13.86
2022-09-09T03:52:02.347Z,13.66
2022-09-09T03:54:28.683Z,13.62
2022-09-09T03:56:55.045Z,13.68
2022-09-09T03:59:22.211Z,13.77
2022-09-09T04:01:48.572Z,13.68
2022-09-09T04:04:15.052Z,13.82
2022-09-09T04:06:41.402Z,13.77
2022-09-09T04:09:07.766Z,13.68
2022-09-09T04:11:35.082Z,13.84
2022-09-09T04:14:01.800Z,13.56
2022-09-09T04:16:28.140Z,13.52
2022-09-09T04:18:54.503Z,13.56
2022-09-09T04:21:21.170Z,13.63
2022-09-09T04:23:47.555Z,13.64
2022-09-09T04:26:13.921Z,13.58
2022-09-09T04:28:40.220Z,13.82
2022-09-09T04:31:18.983Z,13.56
2022-09-09T04:33:45.446Z,13.73
2022-09-09T04:36:11.766Z,13.51
2022-09-09T04:38:38.173Z,13.55
2022-09-09T04:41:04.670Z,13.47
2022-09-09T04:43:31.670Z,13.53
2022-09-09T04:45:58.782Z,13.56
2022-09-09T04:48:26.201Z,13.56
2022-09-09T04:51:03.278Z,13.50
2022-09-09T04:53:29.583Z,13.42
2022-09-09T04:56:06.646Z,13.38
2022-09-09T04:58:33.146Z,13.43
2022-09-09T05:01:09.814Z,13.58
2022-09-09T05:03:36.371Z,13.72
2022-09-09T05:06:03.995Z,13.82
2022-09-09T05:08:30.433Z,13.66
2022-09-09T05:10:56.727Z,13.61
2022-09-09T05:13:23.780Z,13.79
2022-09-09T05:15:54.278Z,13.64
2022-09-09T05:18:20.928Z,13.54
2022-09-09T05:20:47.259Z,13.59
2022-09-09T05:23:14.328Z,13.70
2022-09-09T05:25:42.646Z,13.60
2022-09-09T05:28:08.946Z,13.72
2022-09-09T05:30:35.285Z,13.74
2022-09-09T05:33:01.579Z,13.78
2022-09-09T05:35:27.926Z,13.87
2022-09-09T05:37:54.302Z,13.91
2022-09-09T05:40:22.399Z,13.85
2022-09-09T05:42:48.834Z,13.84
2022-09-09T05:45:15.263Z,13.95
2022-09-09T05:47:41.562Z,14.20
2022-09-09T05:50:08.618Z,14.10
2022-09-09T05:52:34.934Z,14.02
2022-09-09T05:55:01.259Z,14.00
2022-09-09T05:57:27.621Z,14.15
2022-09-09T05:59:54.610Z,14.08
2022-09-09T06:02:21.049Z,14.08
2022-09-09T06:04:47.766Z,14.29
2022-09-09T06:07:15.542Z,14.28
2022-09-09T06:09:42.369Z,14.31
2022-09-09T06:12:08.702Z,14.32
2022-09-09T06:14:35.128Z,14.31
2022-09-09T06:17:01.429Z,14.42
2022-09-09T06:19:27.935Z,14.49
2022-09-09T06:21:54.496Z,14.51
2022-09-09T06:24:21.035Z,14.47
2022-09-09T06:26:47.504Z,14.46
2022-09-09T06:29:22.056Z,14.75
2022-09-09T06:31:48.765Z,14.53
2022-09-09T06:34:15.247Z,14.48
2022-09-09T06:36:41.630Z,14.24
2022-09-09T06:39:14.202Z,14.41
2022-09-09T06:41:41.953Z,14.66
2022-09-09T06:44:08.289Z,14.71
2022-09-09T06:46:42.272Z,14.90
2022-09-09T06:49:09.358Z,14.65
2022-09-09T06:51:36.900Z,14.61
2022-09-09T06:54:04.244Z,14.84
2022-09-09T06:56:34.221Z,15.04
2022-09-09T06:59:04.818Z,14.64
2022-09-09T07:01:32.709Z,14.91
2022-09-09T07:04:00.071Z,14.82
2022-09-09T07:06:28.147Z,14.86
2022-09-09T07:08:56.761Z,15.13
2022-09-09T07:11:24.272Z,15.08
2022-09-09T07:13:50.691Z,15.03
2022-09-09T07:16:18.268Z,15.15
2022-09-09T07:18:45.241Z,15.40
2022-09-09T07:21:12.942Z,15.40
2022-09-09T07:23:39.866Z,15.20
2022-09-09T07:26:10.695Z,15.59
2022-09-09T07:28:37.328Z,15.79
2022-09-09T07:31:04.221Z,15.94
2022-09-09T07:33:31.715Z,16.12
2022-09-09T07:36:07.982Z,15.78
2022-09-09T07:38:39.050Z,16.10
2022-09-09T07:41:06.622Z,16.25
2022-09-09T07:43:34.217Z,16.44
2022-09-09T07:46:02.421Z,16.63
2022-09-09T07:48:32.284Z,16.31
2022-09-09T07:51:09.984Z,16.59
2022-09-09T07:53:37.431Z,16.91
2022-09-09T07:56:08.467Z,16.59
2022-09-09T07:58:38.248Z,16.62
2022-09-09T08:01:12.397Z,16.17
2022-09-09T08:03:39.183Z,16.30
2022-09-09T08:06:07.152Z,16.37
2022-09-09T08:08:34.151Z,16.38
2022-09-09T08:11:04.758Z,16.42
2022-09-09T08:13:32.457Z,16.78
2022-09-09T08:16:08.084Z,16.60
2022-09-09T08:18:34.474Z,16.49
2022-09-09T08:21:28.872Z,16.43
2022-09-09T08:23:58.127Z,16.33
2022-09-09T08:26:32.532Z,16.54
2022-09-09T08:28:59.942Z,17.09
2022-09-09T08:31:29.091Z,17.00
2022-09-09T08:33:55.894Z,17.48
2022-09-09T08:36:23.198Z,17.28
2022-09-09T08:38:51.283Z,17.12
2022-09-09T08:41:17.630Z,17.49
2022-09-09T08:43:46.722Z,17.41
2022-09-09T08:46:21.299Z,17.72
2022-09-09T08:48:49.921Z,18.05
2022-09-09T08:51:16.653Z,18.06
2022-09-09T08:53:49.166Z,18.29
2022-09-09T08:56:19.209Z,18.43
2022-09-09T08:58:53.547Z,18.13
2022-09-09T09:01:20.063Z,18.11
2022-09-09T09:03:58.990Z,18.10
2022-09-09T09:06:40.462Z,17.85
2022-09-09T09:09:09.503Z,17.97
2022-09-09T09:11:39.657Z,17.87
2022-09-09T09:14:08.778Z,18.19
2022-09-09T09:16:51.756Z,18.14
2022-09-09T09:19:18.998Z,18.06
2022-09-09T09:21:50.681Z,18.44
2022-09-09T09:24:22.279Z,18.65
2022-09-09T09:26:48.712Z,17.90
2022-09-09T09:29:17.313Z,18.42
2022-09-09T09:31:48.907Z,18.82
2022-09-09T09:34:15.347Z,19.12
2022-09-09T09:36:45.490Z,19.37
2022-09-09T09:41:58.691Z,19.72
2022-09-09T09:44:29.474Z,19.59
2022-09-09T09:47:09.153Z,19.88
2022-09-09T09:49:35.574Z,19.78
2022-09-09T09:52:03.269Z,19.69
2022-09-09T09:54:30.808Z,19.38
2022-09-09T09:56:58.407Z,19.61
2022-09-09T09:59:41.623Z,19.73
2022-09-09T10:02:13.837Z,19.67
2022-09-09T10:04:40.292Z,19.87
2022-09-09T10:07:14.007Z,20.05
2022-09-09T10:09:41.717Z,20.59
2022-09-09T10:12:08.027Z,20.29
2022-09-09T10:14:34.531Z,20.70
2022-09-09T10:17:28.174Z,21.23
2022-09-09T10:20:14.771Z,21.27
2022-09-09T10:22:46.365Z,21.14
2022-09-09T10:25:15.909Z,21.38
2022-09-09T10:28:06.442Z,21.29
2022-09-09T10:30:56.325Z,21.27
2022-09-09T10:33:34.609Z,21.37
2022-09-09T10:36:09.481Z,21.12
2022-09-09T10:38:35.801Z,21.23
2022-09-09T10:41:12.047Z,21.88
2022-09-09T10:43:58.489Z,21.37
2022-09-09T10:46:47.259Z,22.35
2022-09-09T10:49:22.978Z,22.36
2022-09-09T10:52:01.132Z,23.47
2022-09-09T10:54:40.832Z,23.88
2022-09-09T10:57:14.804Z,24.66
2022-09-09T10:59:48.583Z,25.41
2022-09-09T11:02:16.106Z,24.49
2022-09-09T11:04:45.004Z,22.27
2022-09-09T11:07:13.211Z,21.65
2022-09-09T11:09:46.032Z,21.65
2022-09-09T11:12:16.612Z,21.72
2022-09-09T11:14:49.572Z,22.29
2022-09-09T11:17:21.817Z,22.59
2022-09-09T11:19:48.494Z,22.13
2022-09-09T11:22:33.444Z,23.34
2022-09-09T11:25:01.093Z,23.47
2022-09-09T11:27:41.975Z,25.06
2022-09-09T11:30:17.462Z,26.36
2022-09-09T11:32:51.075Z,24.53
2022-09-09T11:35:28.074Z,23.80
2022-09-09T11:38:03.603Z,24.27
2022-09-09T11:40:31.451Z,24.85
2022-09-09T11:43:15.143Z,25.62
2022-09-09T11:45:42.968Z,27.43
2022-09-09T11:48:27.728Z,25.76
2022-09-09T11:51:01.823Z,24.43
2022-09-09T11:53:28.537Z,25.51
2022-09-09T11:56:02.507Z,26.05
2022-09-09T11:58:56.770Z,25.09
2022-09-09T12:01:38.416Z,27.17
2022-09-09T12:04:17.429Z,28.34
2022-09-09T12:06:50.371Z,26.93
2022-09-09T12:09:24.277Z,28.67
2022-09-09T12:11:51.513Z,30.00
2022-09-09T12:14:37.234Z,29.93
2022-09-09T12:17:12.905Z,28.26
2022-09-09T12:19:39.258Z,28.01
2022-09-09T12:22:12.212Z,25.39
2022-09-09T12:24:45.580Z,26.19
2022-09-09T12:27:19.140Z,26.58
2022-09-09T12:29:54.225Z,26.28
2022-09-09T12:32:25.307Z,24.64
2022-09-09T12:34:58.067Z,23.77
2022-09-09T12:37:30.585Z,25.83
2022-09-09T12:40:01.504Z,27.36
2022-09-09T12:42:29.028Z,27.34
2022-09-09T12:44:57.522Z,27.24
2022-09-09T12:47:41.794Z,26.98
2022-09-09T12:50:18.628Z,29.17
2022-09-09T12:52:46.701Z,29.03
2022-09-09T12:55:17.653Z,30.35
2022-09-09T12:57:44.270Z,31.02
2022-09-09T13:00:21.587Z,30.18
2022-09-09T13:02:55.939Z,31.63
2022-09-09T13:05:23.878Z,32.88
2022-09-09T13:07:50.430Z,32.37
2022-09-09T13:10:36.743Z,32.84
2022-09-09T13:13:21.990Z,31.86
2022-09-09T13:15:56.261Z,30.13
2022-09-09T13:18:24.254Z,31.67
2022-09-09T13:20:51.074Z,31.89
2022-09-09T13:23:20.648Z,29.59
2022-09-09T13:26:00.750Z,27.35
2022-09-09T13:28:28.798Z,26.53
2022-09-09T13:31:05.739Z,26.71
2022-09-09T13:33:34.211Z,27.96
2022-09-09T13:36:03.717Z,29.26
2022-09-09T13:38:31.616Z,32.06
2022-09-09T13:41:05.477Z,32.44
2022-09-09T13:43:36.567Z,33.06
2022-09-09T13:46:05.954Z,32.98
2022-09-09T13:48:32.837Z,33.88
2022-09-09T13:51:05.962Z,34.30
2022-09-09T13:53:32.387Z,34.85
2022-09-09T13:55:59.235Z,34.28
2022-09-09T13:58:26.208Z,34.70
2022-09-09T14:00:53.481Z,30.65
2022-09-09T14:03:20.719Z,31.01
2022-09-09T14:05:47.482Z,30.67
2022-09-09T14:08:25.134Z,28.80
2022-09-09T14:10:53.384Z,28.80
2022-09-09T14:13:19.998Z,32.23
2022-09-09T14:15:46.364Z,33.74
2022-09-09T14:18:13.414Z,34.90
2022-09-09T14:20:40.124Z,33.46
2022-09-09T14:23:06.633Z,32.83
2022-09-09T14:25:33.290Z,31.51
2022-09-09T14:28:03.199Z,31.61
2022-09-09T14:30:29.697Z,28.72
2022-09-09T14:32:56.404Z,31.07
2022-09-09T14:35:23.159Z,33.76
2022-09-09T14:37:49.734Z,34.72
2022-09-09T14:40:16.256Z,35.60
2022-09-09T14:42:42.605Z,35.02
2022-09-09T14:45:09.177Z,33.41
2022-09-09T14:47:35.486Z,30.29
2022-09-09T14:50:03.905Z,27.87
2022-09-09T14:52:30.950Z,26.58
2022-09-09T14:54:57.964Z,24.83
2022-09-09T14:57:24.274Z,22.48
2022-09-09T14:59:51.306Z,21.12
2022-09-09T15:02:18.070Z,19.98
2022-09-09T15:04:45.374Z,18.77
2022-09-09T15:07:11.863Z,17.63
2022-09-09T15:09:38.232Z,17.68
2022-09-09T15:12:05.575Z,17.66
2022-09-09T15:14:32.040Z,17.53
2022-09-09T15:16:58.470Z,17.58
2022-09-09T15:19:24.941Z,17.41
2022-09-09T15:21:51.430Z,17.33
2022-09-09T15:24:18.013Z,17.29
2022-09-09T15:26:44.387Z,17.21
2022-09-09T15:29:10.746Z,17.20
2022-09-09T15:31:37.201Z,16.87
2022-09-09T15:34:07.399Z,16.71
2022-09-09T15:36:33.729Z,16.24
2022-09-09T15:39:00.636Z,15.61
2022-09-09T15:41:27.749Z,14.70
2022-09-09T15:43:57.515Z,14.33
2022-09-09T15:46:28.744Z,14.19
2022-09-09T15:48:56.373Z,14.13
2022-09-09T15:51:41.689Z,14.14
2022-09-09T15:54:09.609Z,14.18
2022-09-09T15:56:35.926Z,14.03
2022-09-09T15:59:03.914Z,13.95
2022-09-09T16:01:31.329Z,14.03
2022-09-09T16:03:58.294Z,14.21
2022-09-09T16:06:25.438Z,14.22
2022-09-09T16:08:53.240Z,14.33
2022-09-09T16:11:21.329Z,14.30
2022-09-09T16:13:51.209Z,14.27
2022-09-09T16:16:20.259Z,14.32
2022-09-09T16:18:47.770Z,14.39
2022-09-09T16:21:17.566Z,14.36
2022-09-09T16:23:44.867Z,14.40
2022-09-09T16:26:12.000Z,14.42
2022-09-09T16:28:38.370Z,14.47
2022-09-09T16:31:05.481Z,14.46
2022-09-09T16:33:32.513Z,14.49
2022-09-09T16:35:59.915Z,14.53
2022-09-09T16:38:26.377Z,14.48
2022-09-09T16:40:52.731Z,14.50
2022-09-09T16:43:19.043Z,14.50
2022-09-09T16:45:46.197Z,14.50
2022-09-09T16:48:12.954Z,14.46
2022-09-09T16:50:40.155Z,14.45
2022-09-09T16:53:09.571Z,14.46
2022-09-09T16:55:40.203Z,14.47
2022-09-09T16:58:06.528Z,14.51
2022-09-09T17:00:32.868Z,14.50
2022-09-09T17:02:59.864Z,14.47
2022-09-09T17:05:26.253Z,14.43
2022-09-09T17:07:52.815Z,14.37
2022-09-09T17:10:19.173Z,14.39
2022-09-09T17:12:46.985Z,14.39
2022-09-09T17:15:13.297Z,14.40
2022-09-09T17:17:39.987Z,14.38
2022-09-09T17:20:08.038Z,14.41
2022-09-09T17:22:34.367Z,14.40
2022-09-09T17:25:01.016Z,14.38
2022-09-09T17:27:27.310Z,14.36
2022-09-09T17:29:53.945Z,14.37
2022-09-09T17:32:20.336Z,14.33
2022-09-09T17:34:46.869Z,14.31
2022-09-09T17:37:14.106Z,14.27
2022-09-09T17:39:40.843Z,14.22
2022-09-09T17:42:08.482Z,14.17
2022-09-09T17:44:35.898Z,14.14
2022-09-09T17:47:04.691Z,14.15
2022-09-09T17:49:31.089Z,14.14
2022-09-09T17:51:57.496Z,14.18
2022-09-09T17:54:23.975Z,14.18
2022-09-09T17:56:50.396Z,14.16
2022-09-09T17:59:17.830Z,14.18
2022-09-09T18:01:45.969Z,14.08
2022-09-09T18:04:16.367Z,13.94
2022-09-09T18:06:44.356Z,13.99
2022-09-09T18:09:13.277Z,14.06
2022-09-09T18:11:43.019Z,14.01
2022-09-09T18:14:10.870Z,13.83
2022-09-09T18:16:37.770Z,13.87
2022-09-09T18:19:05.406Z,13.80
2022-09-09T18:21:33.139Z,13.71
2022-09-09T18:24:00.519Z,13.60
2022-09-09T18:26:27.513Z,13.55
2022-09-09T18:28:57.954Z,13.48
2022-09-09T18:31:27.067Z,13.41
2022-09-09T18:33:53.729Z,13.38
2022-09-09T18:36:22.112Z,13.31
2022-09-09T18:38:48.793Z,13.28
2022-09-09T18:41:26.630Z,13.28
2022-09-09T18:43:55.026Z,13.21
2022-09-09T18:46:22.253Z,13.22
2022-09-09T18:48:50.368Z,13.18
2022-09-09T18:51:17.817Z,13.14
2022-09-09T18:53:44.834Z,13.13
2022-09-09T18:56:12.490Z,13.05
2022-09-09T18:58:40.204Z,13.04
2022-09-09T19:01:09.922Z,12.99
2022-09-09T19:03:37.868Z,12.96
2022-09-09T19:06:09.600Z,12.92
2022-09-09T19:08:39.503Z,12.85
2022-09-09T19:11:07.381Z,12.71
2022-09-09T19:13:34.419Z,12.82
2022-09-09T19:16:07.774Z,12.88
2022-09-09T19:18:34.607Z,12.87
2022-09-09T19:21:11.744Z,12.94
2022-09-09T19:23:38.968Z,13.03
2022-09-09T19:26:08.408Z,13.05
2022-09-09T19:28:35.538Z,13.07
2022-09-09T19:31:06.253Z,13.08
2022-09-09T19:33:33.362Z,13.07
2022-09-09T19:36:02.358Z,13.08
2022-09-09T19:38:29.711Z,13.00
2022-09-09T19:40:56.853Z,13.01
2022-09-09T19:43:24.645Z,12.93
2022-09-09T19:46:03.978Z,12.73
2022-09-09T19:48:31.859Z,12.69
2022-09-09T19:51:04.350Z,12.87
2022-09-09T19:53:36.314Z,13.00
2022-09-09T19:56:05.816Z,12.92
2022-09-09T19:58:34.451Z,12.72
2022-09-09T20:01:12.174Z,12.73
2022-09-09T20:03:39.959Z,12.84
2022-09-09T20:06:06.990Z,12.84
2022-09-09T20:08:33.707Z,12.84
2022-09-09T20:11:01.261Z,12.71
2022-09-09T20:13:29.441Z,12.74
2022-09-09T20:16:12.985Z,12.67
2022-09-09T20:18:41.017Z,12.76
2022-09-09T20:21:10.083Z,12.78
2022-09-09T20:23:37.462Z,12.70
2022-09-09T20:26:06.651Z,12.77
2022-09-09T20:28:35.603Z,12.82
2022-09-09T20:31:06.704Z,12.80
2022-09-09T20:33:33.937Z,12.67
2022-09-09T20:36:05.161Z,12.75
2022-09-09T20:40:40.004Z,12.68
2022-09-09T20:43:06.526Z,12.67
2022-09-09T20:45:38.003Z,12.69
2022-09-09T20:48:05.839Z,12.72
2022-09-09T20:50:35.220Z,12.68
2022-09-09T20:53:01.946Z,12.71
2022-09-09T20:55:30.749Z,12.64
2022-09-09T20:57:58.410Z,12.55
2022-09-09T21:00:24.863Z,12.61
2022-09-09T21:02:51.626Z,12.63
2022-09-09T21:05:23.410Z,12.62
2022-09-09T21:07:50.595Z,12.61
2022-09-09T21:10:18.171Z,12.58
2022-09-09T21:12:45.111Z,12.49
2022-09-09T21:15:11.898Z,12.50
2022-09-09T21:17:40.179Z,12.56
2022-09-09T21:20:06.869Z,12.55
2022-09-09T21:22:33.275Z,12.50
2022-09-09T21:24:59.707Z,12.51
2022-09-09T21:27:26.118Z,12.52
2022-09-09T21:29:52.648Z,12.49
2022-09-09T21:32:19.184Z,12.47
2022-09-09T21:34:45.812Z,12.40
2022-09-09T21:37:12.230Z,12.29
2022-09-09T21:39:38.761Z,12.23
2022-09-09T21:42:05.409Z,12.31
2022-09-09T21:44:31.819Z,12.38
2022-09-09T21:46:58.227Z,12.38
2022-09-09T21:49:24.667Z,12.39
2022-09-09T21:51:51.067Z,12.46
2022-09-09T21:54:18.903Z,12.32
2022-09-09T21:56:45.392Z,12.45
2022-09-09T21:59:12.099Z,12.36
2022-09-09T22:01:40.260Z,12.34
2022-09-09T22:04:06.775Z,12.21
2022-09-09T22:06:33.755Z,12.22
2022-09-09T22:09:01.705Z,12.10
2022-09-09T22:11:29.751Z,12.23
2022-09-09T22:13:56.247Z,12.35
2022-09-09T22:16:23.914Z,12.34
2022-09-09T22:18:56.836Z,12.20
2022-09-09T22:21:24.183Z,12.23
2022-09-09T22:23:59.493Z,12.33
2022-09-09T22:26:28.819Z,12.43
2022-09-09T22:28:57.292Z,12.42
2022-09-09T22:31:25.433Z,12.46
2022-09-09T22:33:52.115Z,12.29
2022-09-09T22:36:20.282Z,12.28
2022-09-09T22:38:50.624Z,12.22
2022-09-09T22:41:18.670Z,12.06
2022-09-09T22:43:46.102Z,11.97
2022-09-09T22:46:13.608Z,11.90
2022-09-09T22:48:40.221Z,11.85
2022-09-09T22:51:09.135Z,11.91
2022-09-09T22:53:36.091Z,11.89
2022-09-09T22:56:05.954Z,11.95
2022-09-09T22:58:34.437Z,11.81
2022-09-09T23:01:06.906Z,11.87
2022-09-09T23:03:33.470Z,11.83
2022-09-09T23:06:01.830Z,11.87
2022-09-09T23:08:33.421Z,11.72
2022-09-09T23:11:11.618Z,11.66
2022-09-09T23:13:40.894Z,11.71
2022-09-09T23:16:22.239Z,11.77
2022-09-09T23:18:48.847Z,11.73
2022-09-09T23:21:15.954Z,11.69
2022-09-09T23:23:45.391Z,11.66
2022-09-09T23:26:20.738Z,11.60
2022-09-09T23:28:49.075Z,11.75
2022-09-09T23:31:16.481Z,11.66
2022-09-09T23:33:43.534Z,11.59
2022-09-09T23:36:19.918Z,11.52
2022-09-09T23:38:47.365Z,11.46
2022-09-09T23:41:20.970Z,11.53
2022-09-09T23:43:48.711Z,11.65
2022-09-09T23:46:17.184Z,11.82
2022-09-09T23:48:43.875Z,11.75
2022-09-09T23:51:17.338Z,11.67
2022-09-09T23:53:45.570Z,11.67
2022-09-09T23:56:12.597Z,11.71
2022-09-09T23:58:39.299Z,11.74
